Kezdőlap
METAR-TAF:

METAR-TAF

Repülőterek :

Belize City, Belize

Phillip Goldston

földrajzi szélesség: 17-32N, földrajzi hosszúság: 088-18W, magasság: 5 m

Jelenlegi meteorológiai megfigyelések

A jelentés 2 órával és 2 perccel ezelõtt készült, 02:00 UTC
Keleti szél 6 kt
Hőmérséklet 28°C
Páratartalom 84%
Légköri nyomás 1013 hPa
Látótávolság 10 km, vagy több
Szórványos felhőzet 2000 lábon

METAR: MZBZ 230200Z 09006KT 9999 SCT020 28/25 A2992 Q1013 NOSIG

Idő: 22:02 (04:02 UTC)

Előrejelzés

A jelentés 6 órával és 32 perccel ezelõtt készült, 21:30 UTC
Az előrejelzés 23-én 00 óra UTC és 23-én 24 óra UTC között érvényes
Keleti szél 8 kt
Látótávolság 10 km, vagy több
Szórványos felhőzet 2200 lábon

TAF: MZBZ 222130Z 2300/2324 09008KT 9999 SCT022

Meteorológiai megfigyelések és előrejelzések több, mint 4000 repülőtéren (METAR és TAF jelentéseket).

A térképen piros és sárga pontok jelzik az elérhető meteorológiai állomásokat.

Mozgassa az egeret a pont fölött, hogy megjelenjen az állomás neve.

Azután kattintson az időjárási megfigyelések és előrejelzések megtekintéséhez.

A térkép megváltoztatása: kattintson a fekete keresztel jelölt zöld gombra ráközelítéshez, a vonallal jelölt zöld gombra távolításhoz, vagy a zöld nyilakra a szomszédos térképek eléréséhez.


METAR-TAF: